Flight Track Log - Related Links

Times and Time Zones

All times are in EDT time to prevent confusion due to time zone crossing. See the N673AM flight status page for this flight to view local times or setup timezone preferences in your user account.


Time Position Orientation Groundspeed Altitude Reporting Facility
EDT Latitude Longitude Course Direction KTS MPH feet Rate Location/Type
Thu 04:33:17 PM 33.9167 -83.3667 220° Southwest 89 102 2,300  Level Atlanta TRACON
Thu 04:34:17 PM 33.8833 -83.3833 203° Southwest 95 109 2,900 600 Climbing Atlanta TRACON
Thu 04:35:17 PM 33.8667 -83.4000 220° Southwest 87 100 3,500 550 Climbing Atlanta TRACON
Thu 04:36:17 PM 33.8500 -83.4167 220° Southwest 84 97 4,000 250 Climbing Atlanta TRACON
Thu 04:37:00 PM 33.8634 -83.5085 194° South  Level Estimated
Thu 04:37:17 PM 33.8333 -83.4333 220° Southwest 105 121 4,000  Level Atlanta TRACON
Thu 04:38:17 PM 33.8167 -83.4667 239° Southwest 109 125 4,000  Level Atlanta TRACON
Thu 04:39:17 PM 33.7833 -83.4833 203° Southwest 113 130 4,000  Level Atlanta TRACON
Thu 04:40:17 PM 33.7667 -83.5167 239° Southwest 111 128 4,000  Level Atlanta TRACON
Thu 04:41:17 PM 33.7333 -83.5333 203° Southwest 116 133 4,000 -50 Level Atlanta TRACON
Thu 04:42:17 PM 33.7167 -83.5667 239° Southwest 117 135 3,900 -50 Descending Atlanta TRACON
Thu 04:43:17 PM 33.7000 -83.6000 239° Southwest 116 133 3,900 50 Level Atlanta TRACON
Thu 04:44:17 PM 33.6667 -83.6167 203° Southwest 119 137 4,000 50 Climbing Atlanta TRACON
Thu 04:45:17 PM 33.6500 -83.6500 239° Southwest 117 135 4,000  Level Atlanta TRACON
Thu 04:46:17 PM 33.6167 -83.6667 203° Southwest 119 137 4,000 50 Level Atlanta TRACON
Thu 04:47:17 PM 33.6000 -83.7000 239° Southwest 112 129 4,100 50 Climbing Atlanta TRACON
Thu 04:48:17 PM 33.5667 -83.7167 203° Southwest 117 135 4,100  Level Atlanta TRACON
Thu 04:49:17 PM 33.5500 -83.7500 239° Southwest 120 138 4,100 -50 Level Atlanta TRACON
Thu 04:50:17 PM 33.5167 -83.7667 203° Southwest 128 147 4,000 -48 Descending Atlanta TRACON
Thu 04:51:23 PM 33.5000 -83.8000 239° Southwest 119 137 4,000  Level Atlanta TRACON
Thu 04:52:17 PM 33.4833 -83.8333 239° Southwest 120 138 4,000  Level Atlanta TRACON
Thu 04:53:17 PM 33.4500 -83.8500 203° Southwest 122 140 4,000 50 Level Atlanta TRACON
Thu 04:54:17 PM 33.4333 -83.8833 239° Southwest 123 142 4,100 50 Climbing Atlanta TRACON
Thu 04:55:17 PM 33.4000 -83.9000 203° Southwest 119 137 4,100  Level Atlanta TRACON
Thu 04:56:23 PM 33.3833 -83.9333 239° Southwest 116 133 4,100  Level Atlanta TRACON
Thu 04:57:23 PM 33.3500 -83.9667 220° Southwest 119 137 4,100  Level Atlanta TRACON
Thu 04:58:17 PM 33.3333 -83.9833 220° Southwest 116 133 4,100 -53 Level Atlanta TRACON
Thu 04:59:17 PM 33.3167 -84.0167 239° Southwest 117 135 4,000 -50 Descending Atlanta TRACON
Thu 05:00:17 PM 33.3000 -84.0500 239° Southwest 117 135 4,000  Level Atlanta TRACON
Thu 05:01:17 PM 33.2833 -84.1000 248° West 118 136 4,000  Level Atlanta TRACON
Thu 05:02:17 PM 33.2833 -84.1333 270° West 117 135 4,000  Level Atlanta TRACON
Thu 05:03:17 PM 33.2667 -84.1667 239° Southwest 113 130 4,000  Level Atlanta TRACON
Thu 05:04:17 PM 33.2500 -84.2000 239° Southwest 116 133 4,000 -95 Level Atlanta TRACON
Thu 05:05:23 PM 33.2333 -84.2333 239° Southwest 122 140 3,800 -286 Descending Atlanta TRACON
Thu 05:06:23 PM 33.2333 -84.2833 270° West 122 140 3,400 -350 Descending Atlanta TRACON
Thu 05:07:23 PM 33.2333 -84.3167 270° West 107 123 3,100 -211 Descending Atlanta TRACON
Thu 05:08:17 PM 33.2333 -84.3500 270° West 103 119 3,000 -111 Descending Atlanta TRACON

Login

Don't have an account? Register now (free) for customized features, flight alerts, and more!